createdAt,value
2023-02-11T00:00:51.137Z,25.54
2023-02-11T00:04:15.007Z,25.53
2023-02-11T00:07:38.578Z,25.52
2023-02-11T00:11:16.207Z,25.52
2023-02-11T00:15:00.336Z,25.52
2023-02-11T00:22:11.765Z,25.52
2023-02-11T00:25:42.730Z,25.54
2023-02-11T00:29:06.085Z,25.54
2023-02-11T00:32:34.936Z,25.52
2023-02-11T00:36:05.879Z,25.52
2023-02-11T00:39:27.908Z,25.51
2023-02-11T00:42:53.956Z,25.49
2023-02-11T00:46:22.302Z,25.47
2023-02-11T00:49:46.704Z,25.48
2023-02-11T00:53:08.626Z,25.48
2023-02-11T00:56:45.654Z,25.48
2023-02-11T01:00:08.602Z,25.47
2023-02-11T01:03:31.557Z,25.46
2023-02-11T01:06:54.305Z,25.46
2023-02-11T01:10:16.232Z,25.47
2023-02-11T01:13:40.107Z,25.45
2023-02-11T01:17:19.777Z,25.43
2023-02-11T01:20:45.184Z,25.41
2023-02-11T01:24:12.747Z,25.41
2023-02-11T01:27:38.110Z,25.40
2023-02-11T01:31:03.940Z,25.39
2023-02-11T01:34:30.220Z,25.40
2023-02-11T01:37:52.197Z,25.37
2023-02-11T01:41:25.748Z,25.36
2023-02-11T01:44:54.786Z,25.35
2023-02-11T01:48:47.193Z,25.35
2023-02-11T01:52:26.877Z,25.35
2023-02-11T01:56:07.415Z,25.35
2023-02-11T01:59:39.734Z,25.35
2023-02-11T02:03:16.888Z,25.35
2023-02-11T02:06:54.923Z,25.36
2023-02-11T02:10:21.422Z,25.34
2023-02-11T02:13:43.238Z,25.33
2023-02-11T02:17:21.306Z,25.31
2023-02-11T02:21:11.246Z,25.30
2023-02-11T02:25:13.415Z,25.30
2023-02-11T02:29:00.376Z,25.33
2023-02-11T02:33:23.338Z,25.35
2023-02-11T02:36:59.194Z,25.35
2023-02-11T02:40:46.650Z,25.35
2023-02-11T02:44:09.506Z,25.34
2023-02-11T02:47:34.952Z,25.32
2023-02-11T02:51:43.049Z,25.32
2023-02-11T02:55:25.301Z,25.32
2023-02-11T02:59:11.668Z,25.32
2023-02-11T03:03:01.120Z,25.31
2023-02-11T03:06:39.043Z,25.30
2023-02-11T03:10:14.219Z,25.31
2023-02-11T03:13:46.030Z,25.31
2023-02-11T03:17:27.618Z,25.29
2023-02-11T03:21:00.950Z,25.29
2023-02-11T03:24:36.948Z,25.27
2023-02-11T03:29:04.526Z,25.27
2023-02-11T03:32:36.666Z,25.27
2023-02-11T03:36:07.648Z,25.28
2023-02-11T03:39:36.835Z,25.26
2023-02-11T03:43:04.642Z,25.25
2023-02-11T03:46:34.843Z,25.23
2023-02-11T03:49:59.293Z,25.24
2023-02-11T03:53:22.831Z,25.24
2023-02-11T03:57:08.836Z,25.21
2023-02-11T04:00:38.284Z,25.18
2023-02-11T04:04:00.142Z,25.17
2023-02-11T04:07:22.119Z,25.17
2023-02-11T04:10:43.921Z,25.14
2023-02-11T04:14:06.801Z,25.12
2023-02-11T04:17:28.685Z,25.12
2023-02-11T04:21:03.215Z,25.10
2023-02-11T04:24:28.521Z,25.09
2023-02-11T04:27:52.426Z,25.09
2023-02-11T04:31:14.717Z,25.08
2023-02-11T04:34:36.658Z,25.07
2023-02-11T04:37:58.546Z,25.07
2023-02-11T04:41:20.847Z,25.05
2023-02-11T04:44:44.852Z,25.04
2023-02-11T04:48:14.274Z,25.03
2023-02-11T04:51:37.179Z,25.02
2023-02-11T04:55:00.643Z,25.00
2023-02-11T04:58:26.987Z,25.01
2023-02-11T05:01:50.129Z,24.99
2023-02-11T05:05:12.324Z,24.99
2023-02-11T05:08:35.293Z,24.98
2023-02-11T05:11:57.090Z,24.96
2023-02-11T05:15:22.947Z,24.95
2023-02-11T05:18:47.538Z,24.94
2023-02-11T05:22:11.305Z,24.93
2023-02-11T05:25:38.130Z,24.91
2023-02-11T05:29:08.737Z,24.93
2023-02-11T05:32:33.858Z,24.92
2023-02-11T05:36:04.147Z,24.90
2023-02-11T05:39:38.819Z,24.88
2023-02-11T05:43:00.781Z,24.88
2023-02-11T05:46:24.450Z,24.87
2023-02-11T05:49:46.710Z,24.85
2023-02-11T05:53:10.491Z,24.84
2023-02-11T05:56:35.592Z,24.84
2023-02-11T05:59:57.604Z,24.83
2023-02-11T06:03:22.390Z,24.83
2023-02-11T06:06:49.359Z,24.81
2023-02-11T06:10:14.729Z,24.80
2023-02-11T06:13:36.556Z,24.80
2023-02-11T06:16:59.371Z,24.79
2023-02-11T06:20:22.917Z,24.76
2023-02-11T06:23:45.448Z,24.74
2023-02-11T06:27:39.313Z,24.73
2023-02-11T06:31:09.330Z,24.71
2023-02-11T06:34:31.446Z,24.72
2023-02-11T06:38:09.717Z,24.71
2023-02-11T06:41:31.865Z,24.70
2023-02-11T06:44:53.761Z,24.68
2023-02-11T06:48:16.455Z,24.66
2023-02-11T06:51:38.951Z,24.64
2023-02-11T06:55:00.812Z,24.62
2023-02-11T06:58:22.772Z,24.59
2023-02-11T07:01:45.642Z,24.56
2023-02-11T07:05:16.919Z,24.55
2023-02-11T07:08:43.627Z,24.53
2023-02-11T07:12:07.769Z,24.52
2023-02-11T07:15:29.717Z,24.51
2023-02-11T07:18:52.801Z,24.50
2023-02-11T07:22:14.659Z,24.50
2023-02-11T07:25:38.110Z,24.49
2023-02-11T07:29:02.247Z,24.49
2023-02-11T07:32:24.359Z,24.49
2023-02-11T07:35:51.392Z,24.50
2023-02-11T07:39:16.831Z,24.51
2023-02-11T07:42:44.695Z,24.52
2023-02-11T07:46:11.625Z,24.53
2023-02-11T07:49:39.884Z,24.56
2023-02-11T07:53:03.659Z,24.58
2023-02-11T07:56:29.623Z,24.61
2023-02-11T07:59:51.473Z,24.63
2023-02-11T08:03:13.294Z,24.63
2023-02-11T08:06:40.851Z,24.63
2023-02-11T08:10:02.832Z,24.65
2023-02-11T08:13:27.143Z,24.67
2023-02-11T08:16:51.666Z,24.69
2023-02-11T08:20:14.529Z,24.70
2023-02-11T08:23:38.974Z,24.71
2023-02-11T08:27:01.523Z,24.71
2023-02-11T08:30:25.096Z,24.72
2023-02-11T08:33:58.322Z,24.74
2023-02-11T08:37:23.027Z,24.76
2023-02-11T08:40:48.299Z,24.79
2023-02-11T08:44:18.727Z,24.82
2023-02-11T08:47:41.202Z,24.86
2023-02-11T08:51:15.275Z,24.88
2023-02-11T08:54:44.721Z,24.91
2023-02-11T08:58:06.930Z,24.95
2023-02-11T09:01:31.171Z,24.97
2023-02-11T09:04:53.026Z,25.00
2023-02-11T09:08:15.449Z,25.00
2023-02-11T09:11:37.408Z,25.00
2023-02-11T09:14:59.440Z,25.01
2023-02-11T09:18:23.578Z,25.01
2023-02-11T09:21:46.491Z,25.00
2023-02-11T09:25:08.675Z,25.04
2023-02-11T09:28:30.635Z,25.05
2023-02-11T09:31:52.871Z,25.07
2023-02-11T09:35:18.093Z,25.09
2023-02-11T09:38:40.001Z,25.10
2023-02-11T09:42:45.005Z,25.14
2023-02-11T09:46:13.717Z,25.17
2023-02-11T09:49:48.009Z,25.21
2023-02-11T09:53:31.785Z,25.23
2023-02-11T09:56:55.730Z,25.29
2023-02-11T10:00:20.529Z,25.31
2023-02-11T10:03:45.270Z,25.34
2023-02-11T10:07:33.142Z,25.38
2023-02-11T10:11:32.450Z,25.40
2023-02-11T10:15:03.249Z,25.45
2023-02-11T10:18:25.009Z,25.47
2023-02-11T10:22:06.093Z,25.50
2023-02-11T10:25:37.341Z,25.54
2023-02-11T10:29:02.504Z,25.57
2023-02-11T10:32:52.059Z,25.60
2023-02-11T10:36:15.451Z,25.62
2023-02-11T10:39:40.242Z,26.24
2023-02-11T10:43:05.194Z,26.75
2023-02-11T10:46:31.990Z,26.86
2023-02-11T10:49:53.914Z,26.90
2023-02-11T10:53:22.391Z,26.91
2023-02-11T10:56:54.766Z,26.91
2023-02-11T11:00:40.344Z,26.90
2023-02-11T11:04:02.411Z,26.87
2023-02-11T11:07:34.180Z,26.84
2023-02-11T11:11:10.288Z,26.81
2023-02-11T11:14:32.102Z,26.80
2023-02-11T11:18:22.603Z,26.77
2023-02-11T11:21:47.491Z,26.75
2023-02-11T11:25:26.996Z,26.76
2023-02-11T11:29:01.460Z,26.77
2023-02-11T11:32:29.788Z,26.77
2023-02-11T11:35:59.971Z,27.23
2023-02-11T11:39:25.587Z,27.44
2023-02-11T11:43:04.879Z,27.51
2023-02-11T11:46:35.970Z,27.51
2023-02-11T11:50:12.466Z,27.50
2023-02-11T11:53:51.449Z,27.49
2023-02-11T11:57:17.604Z,27.47
2023-02-11T12:00:52.473Z,27.44
2023-02-11T12:04:23.482Z,27.41
2023-02-11T12:08:00.723Z,27.38
2023-02-11T12:11:38.655Z,27.35
2023-02-11T12:15:07.452Z,27.31
2023-02-11T12:18:42.040Z,27.30
2023-02-11T12:22:18.876Z,27.28
2023-02-11T12:25:50.959Z,27.26
2023-02-11T12:29:22.235Z,27.24
2023-02-11T12:33:07.097Z,27.24
2023-02-11T12:36:55.328Z,27.24
2023-02-11T12:40:17.198Z,27.22
2023-02-11T12:43:41.299Z,27.22
2023-02-11T12:47:14.499Z,27.20
2023-02-11T12:50:42.442Z,27.20
2023-02-11T12:54:32.895Z,27.20
2023-02-11T12:57:57.999Z,27.21
2023-02-11T13:01:27.378Z,27.20
2023-02-11T13:04:56.175Z,27.19
2023-02-11T13:08:43.796Z,27.23
2023-02-11T13:12:25.830Z,27.49
2023-02-11T13:15:52.282Z,28.24
2023-02-11T13:19:14.159Z,28.79
2023-02-11T13:22:51.182Z,29.30
2023-02-11T13:26:47.748Z,29.90
2023-02-11T13:30:30.584Z,30.18
2023-02-11T13:33:53.228Z,30.32
2023-02-11T13:37:23.793Z,30.51
2023-02-11T13:40:45.835Z,30.52
2023-02-11T13:44:10.778Z,30.79
2023-02-11T13:47:34.227Z,31.08
2023-02-11T13:51:06.183Z,31.31
2023-02-11T13:54:34.873Z,31.54
2023-02-11T13:58:05.992Z,31.78
2023-02-11T14:02:12.539Z,31.85
2023-02-11T14:05:53.448Z,31.95
2023-02-11T14:09:18.108Z,32.12
2023-02-11T14:12:42.584Z,31.95
2023-02-11T14:16:35.599Z,31.63
2023-02-11T14:20:01.970Z,31.45
2023-02-11T14:23:28.324Z,31.38
2023-02-11T14:27:23.264Z,31.33
2023-02-11T14:31:10.907Z,31.38
2023-02-11T14:34:40.839Z,31.38
2023-02-11T14:38:12.841Z,31.36
2023-02-11T14:41:46.444Z,31.36
2023-02-11T14:45:11.691Z,31.31
2023-02-11T14:48:35.339Z,31.26
2023-02-11T14:52:27.417Z,31.22
2023-02-11T14:55:54.584Z,31.18
2023-02-11T14:59:26.160Z,31.13
2023-02-11T15:02:48.697Z,31.06
2023-02-11T15:06:16.951Z,31.01
2023-02-11T15:09:46.698Z,30.93
2023-02-11T15:13:09.085Z,30.85
2023-02-11T15:16:32.568Z,30.80
2023-02-11T15:19:57.462Z,30.70
2023-02-11T15:23:27.556Z,30.61
2023-02-11T15:27:11.385Z,30.54
2023-02-11T15:30:36.727Z,30.47
2023-02-11T15:34:09.755Z,30.39
2023-02-11T15:37:31.670Z,30.32
2023-02-11T15:40:58.505Z,30.26
2023-02-11T15:44:30.506Z,30.18
2023-02-11T15:48:06.524Z,30.13
2023-02-11T15:51:38.068Z,30.07
2023-02-11T15:55:03.554Z,30.02
2023-02-11T15:58:25.418Z,29.98
2023-02-11T16:01:48.158Z,29.93
2023-02-11T16:05:27.246Z,29.92
2023-02-11T16:09:11.895Z,29.88
2023-02-11T16:12:33.670Z,29.85
2023-02-11T16:16:13.751Z,29.81
2023-02-11T16:19:37.761Z,29.78
2023-02-11T16:23:00.297Z,29.74
2023-02-11T16:26:33.114Z,29.72
2023-02-11T16:29:55.020Z,29.67
2023-02-11T16:33:16.864Z,29.64
2023-02-11T16:36:41.440Z,29.61
2023-02-11T16:40:03.287Z,29.57
2023-02-11T16:43:25.156Z,29.55
2023-02-11T16:46:47.527Z,29.51
2023-02-11T16:50:11.654Z,29.48
2023-02-11T16:53:34.897Z,29.46
2023-02-11T16:56:57.578Z,29.42
2023-02-11T17:00:19.934Z,29.40
2023-02-11T17:03:43.762Z,29.36
2023-02-11T17:07:05.790Z,29.35
2023-02-11T17:10:27.686Z,29.33
2023-02-11T17:13:49.617Z,29.30
2023-02-11T17:17:12.046Z,29.32
2023-02-11T17:20:33.913Z,29.30
2023-02-11T17:23:55.843Z,29.30
2023-02-11T17:27:25.104Z,29.27
2023-02-11T17:30:54.399Z,29.25
2023-02-11T17:34:16.944Z,29.24
2023-02-11T17:37:38.779Z,29.22
2023-02-11T17:41:01.809Z,29.21
2023-02-11T17:44:23.776Z,29.19
2023-02-11T17:47:46.238Z,29.18
2023-02-11T17:51:32.659Z,29.16
2023-02-11T17:54:55.461Z,29.16
2023-02-11T17:58:17.297Z,29.16
2023-02-11T18:01:43.751Z,29.15
2023-02-11T18:05:06.508Z,29.12
2023-02-11T18:08:28.567Z,29.10
2023-02-11T18:11:52.683Z,29.09
2023-02-11T18:15:14.551Z,29.09
2023-02-11T18:18:36.385Z,29.08
2023-02-11T18:22:00.958Z,29.07
2023-02-11T18:25:24.005Z,29.06
2023-02-11T18:28:46.300Z,29.05
2023-02-11T18:32:08.352Z,29.04
2023-02-11T18:35:30.239Z,29.03
2023-02-11T18:38:57.109Z,29.02
2023-02-11T18:42:18.926Z,29.03
2023-02-11T18:45:45.269Z,29.02
2023-02-11T18:49:07.323Z,29.01
2023-02-11T18:52:29.217Z,29.00
2023-02-11T18:55:52.228Z,28.98
2023-02-11T18:59:14.509Z,29.00
2023-02-11T19:02:37.216Z,28.99
2023-02-11T19:05:59.058Z,28.98
2023-02-11T19:09:21.073Z,28.97
2023-02-11T19:12:43.913Z,28.97
2023-02-11T19:16:22.160Z,28.96
2023-02-11T19:19:44.163Z,28.96
2023-02-11T19:23:05.981Z,28.96
2023-02-11T19:26:29.239Z,29.12
2023-02-11T19:29:51.164Z,29.43
2023-02-11T19:33:12.970Z,29.83
2023-02-11T19:36:37.160Z,30.27
2023-02-11T19:39:58.970Z,30.56
2023-02-11T19:43:20.948Z,30.85
2023-02-11T19:46:43.203Z,31.09
2023-02-11T19:50:06.425Z,31.32
2023-02-11T19:53:28.295Z,31.45
2023-02-11T19:56:50.297Z,31.63
2023-02-11T20:00:12.770Z,31.82
2023-02-11T20:03:35.066Z,32.01
2023-02-11T20:06:56.891Z,32.15
2023-02-11T20:10:18.844Z,32.30
2023-02-11T20:13:40.765Z,32.44
2023-02-11T20:17:06.788Z,32.57
2023-02-11T20:20:28.678Z,32.68
2023-02-11T20:23:51.421Z,32.77
2023-02-11T20:27:13.606Z,32.87
2023-02-11T20:30:37.587Z,33.09
2023-02-11T20:34:01.247Z,33.50
2023-02-11T20:37:23.053Z,33.79
2023-02-11T20:40:45.085Z,33.91
2023-02-11T20:44:09.955Z,33.99
2023-02-11T20:47:31.756Z,34.03
2023-02-11T20:50:54.265Z,34.01
2023-02-11T20:54:22.802Z,33.83
2023-02-11T20:57:46.990Z,33.70
2023-02-11T21:01:17.093Z,33.56
2023-02-11T21:04:39.971Z,33.43
2023-02-11T21:08:23.805Z,33.35
2023-02-11T21:11:45.780Z,33.28
2023-02-11T21:15:09.760Z,33.19
2023-02-11T21:18:32.003Z,33.13
2023-02-11T21:21:58.741Z,33.07
2023-02-11T21:25:24.307Z,32.98
2023-02-11T21:28:52.931Z,32.91
2023-02-11T21:32:21.119Z,32.80
2023-02-11T21:35:43.966Z,32.75
2023-02-11T21:39:54.210Z,32.65
2023-02-11T21:43:02.794Z,32.51
2023-02-11T21:46:25.079Z,32.39
2023-02-11T21:49:46.950Z,32.30
2023-02-11T21:53:09.140Z,32.21
2023-02-11T21:56:36.894Z,32.08
2023-02-11T21:59:58.783Z,32.00
2023-02-11T22:03:20.707Z,31.91
2023-02-11T22:06:42.538Z,31.76
2023-02-11T22:10:05.034Z,31.67
2023-02-11T22:13:30.613Z,31.56
2023-02-11T22:16:52.591Z,31.41
2023-02-11T22:20:16.153Z,31.31
2023-02-11T22:23:39.328Z,31.23
2023-02-11T22:27:01.527Z,31.14
2023-02-11T22:30:23.400Z,31.03
2023-02-11T22:33:46.385Z,30.92
2023-02-11T22:37:08.452Z,30.86
2023-02-11T22:40:30.315Z,30.82
2023-02-11T22:43:52.095Z,30.79
2023-02-11T22:47:14.020Z,30.72
2023-02-11T22:50:35.876Z,30.69
2023-02-11T22:54:03.287Z,30.62
2023-02-11T22:57:25.052Z,30.52
2023-02-11T23:00:46.941Z,30.43
2023-02-11T23:04:11.681Z,30.32
2023-02-11T23:07:33.614Z,30.26
2023-02-11T23:10:55.938Z,30.18
2023-02-11T23:14:17.710Z,30.09
2023-02-11T23:17:39.464Z,30.02
2023-02-11T23:21:11.315Z,29.90
2023-02-11T23:24:34.131Z,29.83
2023-02-11T23:27:56.138Z,29.77
2023-02-11T23:31:24.078Z,29.68
2023-02-11T23:34:46.020Z,29.60
2023-02-11T23:38:07.878Z,29.52
2023-02-11T23:41:29.891Z,29.46
2023-02-11T23:44:51.753Z,29.40
2023-02-11T23:48:13.644Z,29.35
2023-02-11T23:51:35.453Z,29.30
2023-02-11T23:54:57.212Z,29.23
2023-02-11T23:58:19.096Z,29.17
